sensor_id;sensor_type;location;lat;lon;timestamp;P1;durP1;ratioP1;P2;durP2;ratioP2
52210;SDS011;38179;52.756;6.906;2023-07-31T00:00:36;17.27;;;15.98;;
52210;SDS011;38179;52.756;6.906;2023-07-31T00:03:02;16.55;;;15.15;;
52210;SDS011;38179;52.756;6.906;2023-07-31T00:05:28;17.77;;;16.35;;
52210;SDS011;38179;52.756;6.906;2023-07-31T00:07:54;17.38;;;15.93;;
52210;SDS011;38179;52.756;6.906;2023-07-31T00:10:20;17.88;;;16.38;;
52210;SDS011;38179;52.756;6.906;2023-07-31T00:12:46;17.65;;;16.27;;
52210;SDS011;38179;52.756;6.906;2023-07-31T00:15:13;17.70;;;16.30;;
52210;SDS011;38179;52.756;6.906;2023-07-31T00:17:39;17.77;;;16.27;;
52210;SDS011;38179;52.756;6.906;2023-07-31T00:20:06;16.85;;;15.55;;
52210;SDS011;38179;52.756;6.906;2023-07-31T00:22:32;17.30;;;15.85;;
52210;SDS011;38179;52.756;6.906;2023-07-31T00:24:58;16.65;;;15.40;;
52210;SDS011;38179;52.756;6.906;2023-07-31T00:27:25;16.85;;;15.52;;
52210;SDS011;38179;52.756;6.906;2023-07-31T00:29:50;17.60;;;16.15;;
52210;SDS011;38179;52.756;6.906;2023-07-31T00:32:16;17.20;;;15.90;;
52210;SDS011;38179;52.756;6.906;2023-07-31T00:34:42;16.95;;;15.65;;
52210;SDS011;38179;52.756;6.906;2023-07-31T00:37:08;17.60;;;16.10;;
52210;SDS011;38179;52.756;6.906;2023-07-31T00:39:34;17.52;;;16.00;;
52210;SDS011;38179;52.756;6.906;2023-07-31T00:42:01;16.85;;;15.57;;
52210;SDS011;38179;52.756;6.906;2023-07-31T00:44:27;17.75;;;16.45;;
52210;SDS011;38179;52.756;6.906;2023-07-31T00:46:53;17.10;;;15.80;;
52210;SDS011;38179;52.756;6.906;2023-07-31T00:49:21;16.83;;;15.38;;
52210;SDS011;38179;52.756;6.906;2023-07-31T00:51:47;17.35;;;16.05;;
52210;SDS011;38179;52.756;6.906;2023-07-31T00:54:14;17.08;;;15.68;;
52210;SDS011;38179;52.756;6.906;2023-07-31T00:56:40;17.60;;;16.20;;
52210;SDS011;38179;52.756;6.906;2023-07-31T00:59:07;17.20;;;15.85;;
52210;SDS011;38179;52.756;6.906;2023-07-31T01:01:33;16.88;;;15.57;;
52210;SDS011;38179;52.756;6.906;2023-07-31T01:03:59;16.45;;;15.25;;
52210;SDS011;38179;52.756;6.906;2023-07-31T01:06:34;16.13;;;14.93;;
52210;SDS011;38179;52.756;6.906;2023-07-31T01:11:50;17.05;;;15.75;;
52210;SDS011;38179;52.756;6.906;2023-07-31T01:14:18;16.80;;;15.50;;
52210;SDS011;38179;52.756;6.906;2023-07-31T01:16:44;16.65;;;15.25;;
52210;SDS011;38179;52.756;6.906;2023-07-31T01:19:10;16.48;;;15.18;;
52210;SDS011;38179;52.756;6.906;2023-07-31T01:27:06;15.77;;;14.57;;
52210;SDS011;38179;52.756;6.906;2023-07-31T01:32:03;15.63;;;14.43;;
52210;SDS011;38179;52.756;6.906;2023-07-31T01:34:40;16.27;;;15.07;;
52210;SDS011;38179;52.756;6.906;2023-07-31T01:37:07;15.98;;;14.77;;
52210;SDS011;38179;52.756;6.906;2023-07-31T01:39:33;15.45;;;14.30;;
52210;SDS011;38179;52.756;6.906;2023-07-31T01:41:59;15.75;;;14.63;;
52210;SDS011;38179;52.756;6.906;2023-07-31T01:44:25;16.10;;;14.90;;
52210;SDS011;38179;52.756;6.906;2023-07-31T01:46:51;16.13;;;14.82;;
52210;SDS011;38179;52.756;6.906;2023-07-31T01:49:20;15.45;;;14.15;;
52210;SDS011;38179;52.756;6.906;2023-07-31T01:51:46;15.65;;;14.45;;
52210;SDS011;38179;52.756;6.906;2023-07-31T01:54:11;15.70;;;14.60;;
52210;SDS011;38179;52.756;6.906;2023-07-31T01:56:37;16.02;;;14.70;;
52210;SDS011;38179;52.756;6.906;2023-07-31T01:59:03;15.70;;;14.60;;
52210;SDS011;38179;52.756;6.906;2023-07-31T02:01:29;15.27;;;14.18;;
52210;SDS011;38179;52.756;6.906;2023-07-31T02:03:55;15.50;;;14.40;;
52210;SDS011;38179;52.756;6.906;2023-07-31T02:06:21;15.55;;;14.45;;
52210;SDS011;38179;52.756;6.906;2023-07-31T02:08:47;16.15;;;14.85;;
52210;SDS011;38179;52.756;6.906;2023-07-31T02:11:14;15.65;;;14.55;;
52210;SDS011;38179;52.756;6.906;2023-07-31T02:13:40;16.40;;;15.07;;
52210;SDS011;38179;52.756;6.906;2023-07-31T02:16:06;15.88;;;14.60;;
52210;SDS011;38179;52.756;6.906;2023-07-31T02:18:32;15.48;;;14.35;;
52210;SDS011;38179;52.756;6.906;2023-07-31T02:20:58;15.23;;;14.13;;
52210;SDS011;38179;52.756;6.906;2023-07-31T02:23:27;15.65;;;14.55;;
52210;SDS011;38179;52.756;6.906;2023-07-31T02:25:53;15.43;;;14.32;;
52210;SDS011;38179;52.756;6.906;2023-07-31T02:28:19;15.75;;;14.65;;
52210;SDS011;38179;52.756;6.906;2023-07-31T02:30:45;15.77;;;14.65;;
52210;SDS011;38179;52.756;6.906;2023-07-31T02:35:43;15.77;;;14.57;;
52210;SDS011;38179;52.756;6.906;2023-07-31T02:38:09;15.95;;;14.75;;
52210;SDS011;38179;52.756;6.906;2023-07-31T02:40:35;15.85;;;14.65;;
52210;SDS011;38179;52.756;6.906;2023-07-31T02:43:00;16.13;;;14.93;;
52210;SDS011;38179;52.756;6.906;2023-07-31T02:45:26;15.93;;;14.73;;
52210;SDS011;38179;52.756;6.906;2023-07-31T02:47:52;16.00;;;14.77;;
52210;SDS011;38179;52.756;6.906;2023-07-31T02:50:18;15.73;;;14.52;;
52210;SDS011;38179;52.756;6.906;2023-07-31T02:52:45;15.85;;;14.65;;
52210;SDS011;38179;52.756;6.906;2023-07-31T02:55:11;15.88;;;14.77;;
52210;SDS011;38179;52.756;6.906;2023-07-31T02:57:37;15.88;;;14.73;;
52210;SDS011;38179;52.756;6.906;2023-07-31T03:00:03;16.50;;;15.23;;
52210;SDS011;38179;52.756;6.906;2023-07-31T03:02:31;15.65;;;14.55;;
52210;SDS011;38179;52.756;6.906;2023-07-31T03:04:57;16.10;;;14.85;;
52210;SDS011;38179;52.756;6.906;2023-07-31T03:07:23;15.68;;;14.52;;
52210;SDS011;38179;52.756;6.906;2023-07-31T03:09:49;16.00;;;14.80;;
52210;SDS011;38179;52.756;6.906;2023-07-31T03:12:15;16.33;;;15.13;;
52210;SDS011;38179;52.756;6.906;2023-07-31T03:14:41;15.75;;;14.65;;
52210;SDS011;38179;52.756;6.906;2023-07-31T03:17:07;15.82;;;14.70;;
52210;SDS011;38179;52.756;6.906;2023-07-31T03:19:32;15.55;;;14.38;;
52210;SDS011;38179;52.756;6.906;2023-07-31T03:21:59;16.13;;;14.93;;
52210;SDS011;38179;52.756;6.906;2023-07-31T03:24:25;16.23;;;15.02;;
52210;SDS011;38179;52.756;6.906;2023-07-31T03:26:51;15.35;;;14.25;;
52210;SDS011;38179;52.756;6.906;2023-07-31T03:29:17;16.08;;;14.80;;
52210;SDS011;38179;52.756;6.906;2023-07-31T03:31:43;16.00;;;14.63;;
52210;SDS011;38179;52.756;6.906;2023-07-31T03:34:09;16.00;;;14.80;;
52210;SDS011;38179;52.756;6.906;2023-07-31T03:36:35;16.27;;;15.07;;
52210;SDS011;38179;52.756;6.906;2023-07-31T03:39:01;16.83;;;15.52;;
52210;SDS011;38179;52.756;6.906;2023-07-31T03:41:27;16.40;;;15.20;;
52210;SDS011;38179;52.756;6.906;2023-07-31T03:43:53;16.27;;;15.07;;
52210;SDS011;38179;52.756;6.906;2023-07-31T03:46:21;16.17;;;14.98;;
52210;SDS011;38179;52.756;6.906;2023-07-31T03:48:48;16.23;;;15.05;;
52210;SDS011;38179;52.756;6.906;2023-07-31T03:51:14;16.13;;;14.93;;
52210;SDS011;38179;52.756;6.906;2023-07-31T03:53:40;16.30;;;15.13;;
52210;SDS011;38179;52.756;6.906;2023-07-31T03:56:06;16.00;;;14.90;;
52210;SDS011;38179;52.756;6.906;2023-07-31T03:58:32;16.05;;;14.85;;
52210;SDS011;38179;52.756;6.906;2023-07-31T04:00:58;15.93;;;14.52;;
52210;SDS011;38179;52.756;6.906;2023-07-31T04:03:24;15.88;;;14.68;;
52210;SDS011;38179;52.756;6.906;2023-07-31T04:05:50;16.08;;;14.88;;
52210;SDS011;38179;52.756;6.906;2023-07-31T04:08:16;16.00;;;14.90;;
52210;SDS011;38179;52.756;6.906;2023-07-31T04:10:42;15.90;;;14.70;;
52210;SDS011;38179;52.756;6.906;2023-07-31T04:13:07;15.55;;;14.45;;
52210;SDS011;38179;52.756;6.906;2023-07-31T04:15:33;16.35;;;15.20;;
52210;SDS011;38179;52.756;6.906;2023-07-31T04:17:59;16.15;;;14.95;;
52210;SDS011;38179;52.756;6.906;2023-07-31T04:20:25;15.50;;;14.38;;
52210;SDS011;38179;52.756;6.906;2023-07-31T04:22:51;16.80;;;15.60;;
52210;SDS011;38179;52.756;6.906;2023-07-31T04:25:17;15.98;;;14.88;;
52210;SDS011;38179;52.756;6.906;2023-07-31T04:27:44;15.95;;;14.75;;
52210;SDS011;38179;52.756;6.906;2023-07-31T04:30:10;16.25;;;15.00;;
52210;SDS011;38179;52.756;6.906;2023-07-31T04:32:36;16.00;;;14.90;;
52210;SDS011;38179;52.756;6.906;2023-07-31T04:35:02;15.85;;;14.65;;
52210;SDS011;38179;52.756;6.906;2023-07-31T04:37:28;15.55;;;14.45;;
52210;SDS011;38179;52.756;6.906;2023-07-31T04:39:54;16.13;;;14.93;;
52210;SDS011;38179;52.756;6.906;2023-07-31T04:42:23;15.95;;;14.80;;
52210;SDS011;38179;52.756;6.906;2023-07-31T04:44:48;15.68;;;14.48;;
52210;SDS011;38179;52.756;6.906;2023-07-31T04:47:14;16.35;;;15.05;;
52210;SDS011;38179;52.756;6.906;2023-07-31T04:49:40;16.17;;;15.00;;
52210;SDS011;38179;52.756;6.906;2023-07-31T04:52:06;16.52;;;15.13;;
52210;SDS011;38179;52.756;6.906;2023-07-31T04:54:32;17.35;;;15.75;;
52210;SDS011;38179;52.756;6.906;2023-07-31T04:56:58;17.25;;;15.85;;
52210;SDS011;38179;52.756;6.906;2023-07-31T04:59:24;18.23;;;16.48;;
52210;SDS011;38179;52.756;6.906;2023-07-31T05:01:50;18.88;;;17.15;;
52210;SDS011;38179;52.756;6.906;2023-07-31T05:04:15;19.83;;;17.77;;
52210;SDS011;38179;52.756;6.906;2023-07-31T05:06:41;21.67;;;17.92;;
52210;SDS011;38179;52.756;6.906;2023-07-31T05:09:08;21.80;;;18.75;;
52210;SDS011;38179;52.756;6.906;2023-07-31T05:11:37;20.38;;;18.20;;
52210;SDS011;38179;52.756;6.906;2023-07-31T05:14:02;23.55;;;19.02;;
52210;SDS011;38179;52.756;6.906;2023-07-31T05:16:28;32.35;;;19.55;;
52210;SDS011;38179;52.756;6.906;2023-07-31T05:18:55;26.02;;;20.13;;
52210;SDS011;38179;52.756;6.906;2023-07-31T05:21:22;22.08;;;19.58;;
52210;SDS011;38179;52.756;6.906;2023-07-31T05:23:48;25.70;;;20.08;;
52210;SDS011;38179;52.756;6.906;2023-07-31T05:26:15;21.98;;;19.73;;
52210;SDS011;38179;52.756;6.906;2023-07-31T05:28:41;26.42;;;20.73;;
52210;SDS011;38179;52.756;6.906;2023-07-31T05:31:06;27.38;;;21.15;;
52210;SDS011;38179;52.756;6.906;2023-07-31T05:33:32;23.00;;;19.30;;
52210;SDS011;38179;52.756;6.906;2023-07-31T05:35:58;28.48;;;21.85;;
52210;SDS011;38179;52.756;6.906;2023-07-31T05:38:24;30.05;;;21.75;;
52210;SDS011;38179;52.756;6.906;2023-07-31T05:40:50;24.48;;;21.45;;
52210;SDS011;38179;52.756;6.906;2023-07-31T05:43:16;24.85;;;21.50;;
52210;SDS011;38179;52.756;6.906;2023-07-31T05:45:42;30.70;;;22.15;;
52210;SDS011;38179;52.756;6.906;2023-07-31T05:48:09;29.30;;;21.67;;
52210;SDS011;38179;52.756;6.906;2023-07-31T05:50:35;27.40;;;21.40;;
52210;SDS011;38179;52.756;6.906;2023-07-31T05:53:04;27.90;;;22.08;;
52210;SDS011;38179;52.756;6.906;2023-07-31T05:55:30;30.67;;;22.35;;
52210;SDS011;38179;52.756;6.906;2023-07-31T05:57:56;30.90;;;22.10;;
52210;SDS011;38179;52.756;6.906;2023-07-31T06:00:21;30.70;;;22.63;;
52210;SDS011;38179;52.756;6.906;2023-07-31T06:02:48;35.25;;;23.25;;
52210;SDS011;38179;52.756;6.906;2023-07-31T06:05:14;29.20;;;22.98;;
52210;SDS011;38179;52.756;6.906;2023-07-31T06:07:40;29.95;;;23.02;;
52210;SDS011;38179;52.756;6.906;2023-07-31T06:10:06;30.83;;;23.73;;
52210;SDS011;38179;52.756;6.906;2023-07-31T06:12:33;26.90;;;22.45;;
52210;SDS011;38179;52.756;6.906;2023-07-31T06:14:59;31.65;;;23.77;;
52210;SDS011;38179;52.756;6.906;2023-07-31T06:17:25;32.17;;;25.00;;
52210;SDS011;38179;52.756;6.906;2023-07-31T06:19:53;38.13;;;24.15;;
52210;SDS011;38179;52.756;6.906;2023-07-31T06:22:19;31.17;;;23.63;;
52210;SDS011;38179;52.756;6.906;2023-07-31T06:24:45;28.63;;;23.65;;
52210;SDS011;38179;52.756;6.906;2023-07-31T06:27:11;31.75;;;23.67;;
52210;SDS011;38179;52.756;6.906;2023-07-31T06:29:37;30.75;;;23.60;;
52210;SDS011;38179;52.756;6.906;2023-07-31T06:34:32;34.63;;;24.20;;
52210;SDS011;38179;52.756;6.906;2023-07-31T06:36:58;30.05;;;22.95;;
52210;SDS011;38179;52.756;6.906;2023-07-31T06:39:24;35.38;;;24.10;;
52210;SDS011;38179;52.756;6.906;2023-07-31T06:41:53;32.50;;;23.20;;
52210;SDS011;38179;52.756;6.906;2023-07-31T06:44:19;29.92;;;23.23;;
52210;SDS011;38179;52.756;6.906;2023-07-31T06:46:44;31.98;;;22.98;;
52210;SDS011;38179;52.756;6.906;2023-07-31T06:49:10;28.88;;;23.02;;
52210;SDS011;38179;52.756;6.906;2023-07-31T06:51:36;31.58;;;23.13;;
52210;SDS011;38179;52.756;6.906;2023-07-31T06:54:03;30.08;;;23.33;;
52210;SDS011;38179;52.756;6.906;2023-07-31T06:56:29;33.05;;;22.98;;
52210;SDS011;38179;52.756;6.906;2023-07-31T06:58:55;27.75;;;23.20;;
52210;SDS011;38179;52.756;6.906;2023-07-31T07:01:21;32.33;;;23.30;;
52210;SDS011;38179;52.756;6.906;2023-07-31T07:03:47;31.65;;;23.58;;
52210;SDS011;38179;52.756;6.906;2023-07-31T07:06:16;30.90;;;22.33;;
52210;SDS011;38179;52.756;6.906;2023-07-31T07:08:43;25.30;;;21.52;;
52210;SDS011;38179;52.756;6.906;2023-07-31T07:11:09;25.23;;;21.30;;
52210;SDS011;38179;52.756;6.906;2023-07-31T07:13:35;26.23;;;21.38;;
52210;SDS011;38179;52.756;6.906;2023-07-31T07:16:01;24.33;;;21.05;;
52210;SDS011;38179;52.756;6.906;2023-07-31T07:18:27;27.55;;;21.70;;
52210;SDS011;38179;52.756;6.906;2023-07-31T07:20:56;24.45;;;21.23;;
52210;SDS011;38179;52.756;6.906;2023-07-31T07:23:23;22.70;;;20.30;;
52210;SDS011;38179;52.756;6.906;2023-07-31T07:25:49;24.33;;;21.27;;
52210;SDS011;38179;52.756;6.906;2023-07-31T07:28:16;22.67;;;20.23;;
52210;SDS011;38179;52.756;6.906;2023-07-31T07:30:42;24.15;;;20.25;;
52210;SDS011;38179;52.756;6.906;2023-07-31T07:33:08;22.70;;;20.25;;
52210;SDS011;38179;52.756;6.906;2023-07-31T07:35:34;24.35;;;20.85;;
52210;SDS011;38179;52.756;6.906;2023-07-31T07:38:03;26.00;;;20.60;;
52210;SDS011;38179;52.756;6.906;2023-07-31T07:40:29;23.10;;;20.33;;
52210;SDS011;38179;52.756;6.906;2023-07-31T07:42:55;22.42;;;20.13;;
52210;SDS011;38179;52.756;6.906;2023-07-31T07:45:21;22.38;;;19.98;;
52210;SDS011;38179;52.756;6.906;2023-07-31T07:47:47;23.08;;;20.02;;
52210;SDS011;38179;52.756;6.906;2023-07-31T07:50:13;22.73;;;20.33;;
52210;SDS011;38179;52.756;6.906;2023-07-31T07:52:39;25.27;;;20.85;;
52210;SDS011;38179;52.756;6.906;2023-07-31T07:55:05;22.35;;;20.05;;
52210;SDS011;38179;52.756;6.906;2023-07-31T07:57:31;21.88;;;19.63;;
52210;SDS011;38179;52.756;6.906;2023-07-31T07:59:57;21.98;;;19.98;;
52210;SDS011;38179;52.756;6.906;2023-07-31T08:02:23;21.42;;;19.40;;
52210;SDS011;38179;52.756;6.906;2023-07-31T08:04:49;21.67;;;19.40;;
52210;SDS011;38179;52.756;6.906;2023-07-31T08:07:14;20.90;;;18.80;;
52210;SDS011;38179;52.756;6.906;2023-07-31T08:09:41;20.70;;;18.70;;
52210;SDS011;38179;52.756;6.906;2023-07-31T08:12:07;20.40;;;18.50;;
52210;SDS011;38179;52.756;6.906;2023-07-31T08:17:07;20.60;;;18.70;;
52210;SDS011;38179;52.756;6.906;2023-07-31T08:19:33;20.35;;;18.25;;
52210;SDS011;38179;52.756;6.906;2023-07-31T08:21:59;20.58;;;18.55;;
52210;SDS011;38179;52.756;6.906;2023-07-31T08:24:25;20.13;;;18.23;;
52210;SDS011;38179;52.756;6.906;2023-07-31T08:26:50;20.38;;;18.45;;
52210;SDS011;38179;52.756;6.906;2023-07-31T08:29:16;19.75;;;17.95;;
52210;SDS011;38179;52.756;6.906;2023-07-31T08:31:42;20.05;;;18.15;;
52210;SDS011;38179;52.756;6.906;2023-07-31T08:34:08;20.10;;;18.33;;
52210;SDS011;38179;52.756;6.906;2023-07-31T08:36:34;19.75;;;17.90;;
52210;SDS011;38179;52.756;6.906;2023-07-31T08:39:00;20.15;;;18.25;;
52210;SDS011;38179;52.756;6.906;2023-07-31T08:41:27;19.83;;;18.00;;
52210;SDS011;38179;52.756;6.906;2023-07-31T08:43:52;19.85;;;18.25;;
52210;SDS011;38179;52.756;6.906;2023-07-31T08:46:20;19.48;;;17.50;;
52210;SDS011;38179;52.756;6.906;2023-07-31T08:48:46;18.88;;;17.38;;
52210;SDS011;38179;52.756;6.906;2023-07-31T08:51:13;18.27;;;16.70;;
52210;SDS011;38179;52.756;6.906;2023-07-31T08:53:40;19.10;;;17.38;;
52210;SDS011;38179;52.756;6.906;2023-07-31T08:56:06;19.15;;;17.42;;
52210;SDS011;38179;52.756;6.906;2023-07-31T08:58:33;19.10;;;17.42;;
52210;SDS011;38179;52.756;6.906;2023-07-31T09:01:00;18.65;;;17.00;;
52210;SDS011;38179;52.756;6.906;2023-07-31T09:03:28;19.05;;;17.30;;
52210;SDS011;38179;52.756;6.906;2023-07-31T09:05:59;18.70;;;17.15;;
52210;SDS011;38179;52.756;6.906;2023-07-31T09:08:26;18.92;;;17.27;;
52210;SDS011;38179;52.756;6.906;2023-07-31T09:10:58;18.08;;;16.58;;
52210;SDS011;38179;52.756;6.906;2023-07-31T09:13:26;18.92;;;17.35;;
52210;SDS011;38179;52.756;6.906;2023-07-31T09:15:53;18.23;;;16.83;;
52210;SDS011;38179;52.756;6.906;2023-07-31T09:18:19;17.85;;;16.45;;
52210;SDS011;38179;52.756;6.906;2023-07-31T09:21:08;18.65;;;17.13;;
52210;SDS011;38179;52.756;6.906;2023-07-31T09:23:42;18.13;;;16.75;;
52210;SDS011;38179;52.756;6.906;2023-07-31T09:26:10;18.17;;;16.73;;
52210;SDS011;38179;52.756;6.906;2023-07-31T09:28:36;18.08;;;16.70;;
52210;SDS011;38179;52.756;6.906;2023-07-31T09:31:02;17.60;;;16.10;;
52210;SDS011;38179;52.756;6.906;2023-07-31T09:33:29;17.10;;;15.70;;
52210;SDS011;38179;52.756;6.906;2023-07-31T09:35:58;17.48;;;16.17;;
52210;SDS011;38179;52.756;6.906;2023-07-31T09:38:25;17.55;;;16.25;;
52210;SDS011;38179;52.756;6.906;2023-07-31T09:40:51;16.85;;;15.55;;
52210;SDS011;38179;52.756;6.906;2023-07-31T09:43:18;16.98;;;15.77;;
52210;SDS011;38179;52.756;6.906;2023-07-31T09:45:46;16.90;;;15.60;;
52210;SDS011;38179;52.756;6.906;2023-07-31T09:48:13;16.98;;;15.68;;
52210;SDS011;38179;52.756;6.906;2023-07-31T09:50:44;16.67;;;15.48;;
52210;SDS011;38179;52.756;6.906;2023-07-31T09:53:11;16.40;;;15.30;;
52210;SDS011;38179;52.756;6.906;2023-07-31T09:55:38;16.55;;;15.35;;
52210;SDS011;38179;52.756;6.906;2023-07-31T09:58:06;16.73;;;15.52;;
52210;SDS011;38179;52.756;6.906;2023-07-31T10:00:33;17.13;;;15.82;;
52210;SDS011;38179;52.756;6.906;2023-07-31T10:03:00;16.70;;;15.50;;
52210;SDS011;38179;52.756;6.906;2023-07-31T10:05:30;16.10;;;15.00;;
52210;SDS011;38179;52.756;6.906;2023-07-31T10:07:59;16.63;;;15.43;;
52210;SDS011;38179;52.756;6.906;2023-07-31T10:10:25;16.92;;;15.63;;
52210;SDS011;38179;52.756;6.906;2023-07-31T10:12:53;17.52;;;16.13;;
52210;SDS011;38179;52.756;6.906;2023-07-31T10:15:20;17.02;;;15.82;;
52210;SDS011;38179;52.756;6.906;2023-07-31T10:17:47;17.27;;;15.93;;
52210;SDS011;38179;52.756;6.906;2023-07-31T10:20:14;16.95;;;15.75;;
52210;SDS011;38179;52.756;6.906;2023-07-31T10:22:41;17.23;;;16.02;;
52210;SDS011;38179;52.756;6.906;2023-07-31T10:25:08;17.70;;;16.42;;
52210;SDS011;38179;52.756;6.906;2023-07-31T10:27:35;17.95;;;16.67;;
52210;SDS011;38179;52.756;6.906;2023-07-31T10:30:22;17.35;;;16.15;;
52210;SDS011;38179;52.756;6.906;2023-07-31T10:32:52;18.27;;;16.85;;
52210;SDS011;38179;52.756;6.906;2023-07-31T10:35:19;18.02;;;16.52;;
52210;SDS011;38179;52.756;6.906;2023-07-31T10:37:47;17.80;;;16.50;;
52210;SDS011;38179;52.756;6.906;2023-07-31T10:40:26;18.33;;;17.02;;
52210;SDS011;38179;52.756;6.906;2023-07-31T10:42:53;18.25;;;16.95;;
52210;SDS011;38179;52.756;6.906;2023-07-31T10:45:24;18.80;;;17.27;;
52210;SDS011;38179;52.756;6.906;2023-07-31T10:47:57;18.23;;;16.92;;
52210;SDS011;38179;52.756;6.906;2023-07-31T10:50:29;18.02;;;16.73;;
52210;SDS011;38179;52.756;6.906;2023-07-31T10:52:58;17.88;;;16.60;;
52210;SDS011;38179;52.756;6.906;2023-07-31T10:55:42;18.15;;;16.85;;
52210;SDS011;38179;52.756;6.906;2023-07-31T10:58:12;17.42;;;16.15;;
52210;SDS011;38179;52.756;6.906;2023-07-31T11:00:40;17.83;;;16.52;;
52210;SDS011;38179;52.756;6.906;2023-07-31T11:08:17;17.83;;;16.52;;
52210;SDS011;38179;52.756;6.906;2023-07-31T11:13:40;17.73;;;16.48;;
52210;SDS011;38179;52.756;6.906;2023-07-31T11:16:11;18.38;;;16.98;;
52210;SDS011;38179;52.756;6.906;2023-07-31T11:18:39;18.38;;;17.08;;
52210;SDS011;38179;52.756;6.906;2023-07-31T11:21:07;18.00;;;16.70;;
52210;SDS011;38179;52.756;6.906;2023-07-31T11:23:33;18.73;;;17.40;;
52210;SDS011;38179;52.756;6.906;2023-07-31T11:26:02;18.92;;;17.52;;
52210;SDS011;38179;52.756;6.906;2023-07-31T11:28:31;18.40;;;17.10;;
52210;SDS011;38179;52.756;6.906;2023-07-31T11:30:58;18.40;;;17.10;;
52210;SDS011;38179;52.756;6.906;2023-07-31T11:33:25;18.13;;;16.83;;
52210;SDS011;38179;52.756;6.906;2023-07-31T11:35:51;18.52;;;17.23;;
52210;SDS011;38179;52.756;6.906;2023-07-31T11:38:24;18.05;;;16.75;;
52210;SDS011;38179;52.756;6.906;2023-07-31T11:40:52;17.83;;;16.63;;
52210;SDS011;38179;52.756;6.906;2023-07-31T11:43:19;17.98;;;16.70;;
52210;SDS011;38179;52.756;6.906;2023-07-31T11:45:49;18.20;;;16.90;;
52210;SDS011;38179;52.756;6.906;2023-07-31T11:48:20;17.70;;;16.45;;
52210;SDS011;38179;52.756;6.906;2023-07-31T11:50:48;18.85;;;17.45;;
52210;SDS011;38179;52.756;6.906;2023-07-31T11:53:19;17.95;;;16.65;;
52210;SDS011;38179;52.756;6.906;2023-07-31T11:55:48;18.73;;;17.33;;
52210;SDS011;38179;52.756;6.906;2023-07-31T11:58:15;19.17;;;17.77;;
52210;SDS011;38179;52.756;6.906;2023-07-31T12:00:43;18.98;;;17.65;;
52210;SDS011;38179;52.756;6.906;2023-07-31T12:03:09;18.70;;;17.38;;
52210;SDS011;38179;52.756;6.906;2023-07-31T12:05:36;18.95;;;17.55;;
52210;SDS011;38179;52.756;6.906;2023-07-31T12:08:08;19.27;;;17.63;;
52210;SDS011;38179;52.756;6.906;2023-07-31T12:10:36;19.10;;;17.60;;
52210;SDS011;38179;52.756;6.906;2023-07-31T12:13:10;18.77;;;17.25;;
52210;SDS011;38179;52.756;6.906;2023-07-31T12:15:43;19.70;;;18.20;;
52210;SDS011;38179;52.756;6.906;2023-07-31T12:18:10;19.17;;;17.67;;
52210;SDS011;38179;52.756;6.906;2023-07-31T12:20:49;18.88;;;17.45;;
52210;SDS011;38179;52.756;6.906;2023-07-31T12:23:25;18.83;;;17.42;;
52210;SDS011;38179;52.756;6.906;2023-07-31T12:31:08;19.00;;;17.50;;
52210;SDS011;38179;52.756;6.906;2023-07-31T12:33:39;20.33;;;18.83;;
52210;SDS011;38179;52.756;6.906;2023-07-31T12:36:08;20.77;;;19.23;;
52210;SDS011;38179;52.756;6.906;2023-07-31T12:38:42;21.85;;;19.95;;
52210;SDS011;38179;52.756;6.906;2023-07-31T12:41:08;20.85;;;19.25;;
52210;SDS011;38179;52.756;6.906;2023-07-31T12:43:34;21.40;;;19.75;;
52210;SDS011;38179;52.756;6.906;2023-07-31T12:46:01;21.88;;;20.17;;
52210;SDS011;38179;52.756;6.906;2023-07-31T12:48:27;22.00;;;20.30;;
52210;SDS011;38179;52.756;6.906;2023-07-31T12:50:53;22.08;;;20.27;;
52210;SDS011;38179;52.756;6.906;2023-07-31T12:53:19;22.27;;;20.38;;
52210;SDS011;38179;52.756;6.906;2023-07-31T12:55:45;22.15;;;20.23;;
52210;SDS011;38179;52.756;6.906;2023-07-31T12:58:11;21.83;;;20.17;;
52210;SDS011;38179;52.756;6.906;2023-07-31T13:00:37;22.60;;;20.67;;
52210;SDS011;38179;52.756;6.906;2023-07-31T13:03:03;20.52;;;18.85;;
52210;SDS011;38179;52.756;6.906;2023-07-31T13:05:29;19.48;;;17.98;;
52210;SDS011;38179;52.756;6.906;2023-07-31T13:07:55;19.42;;;17.92;;
52210;SDS011;38179;52.756;6.906;2023-07-31T13:10:22;19.38;;;17.90;;
52210;SDS011;38179;52.756;6.906;2023-07-31T13:12:48;19.30;;;17.80;;
52210;SDS011;38179;52.756;6.906;2023-07-31T13:15:14;19.48;;;17.90;;
52210;SDS011;38179;52.756;6.906;2023-07-31T13:17:40;20.33;;;18.35;;
52210;SDS011;38179;52.756;6.906;2023-07-31T13:20:07;21.45;;;19.70;;
52210;SDS011;38179;52.756;6.906;2023-07-31T13:22:33;21.10;;;19.45;;
52210;SDS011;38179;52.756;6.906;2023-07-31T13:24:59;20.55;;;18.77;;
52210;SDS011;38179;52.756;6.906;2023-07-31T13:27:28;20.27;;;18.70;;
52210;SDS011;38179;52.756;6.906;2023-07-31T13:29:54;20.90;;;19.20;;
52210;SDS011;38179;52.756;6.906;2023-07-31T13:32:21;21.08;;;19.35;;
52210;SDS011;38179;52.756;6.906;2023-07-31T13:34:47;21.27;;;19.48;;
52210;SDS011;38179;52.756;6.906;2023-07-31T13:37:14;20.45;;;18.95;;
52210;SDS011;38179;52.756;6.906;2023-07-31T13:39:41;19.95;;;18.45;;
52210;SDS011;38179;52.756;6.906;2023-07-31T13:42:08;20.98;;;19.27;;
52210;SDS011;38179;52.756;6.906;2023-07-31T13:44:40;21.77;;;20.08;;
52210;SDS011;38179;52.756;6.906;2023-07-31T13:47:10;21.80;;;19.90;;
52210;SDS011;38179;52.756;6.906;2023-07-31T13:49:36;21.40;;;19.67;;
52210;SDS011;38179;52.756;6.906;2023-07-31T13:52:04;21.60;;;19.87;;
52210;SDS011;38179;52.756;6.906;2023-07-31T13:54:30;22.55;;;20.65;;
52210;SDS011;38179;52.756;6.906;2023-07-31T13:56:56;22.65;;;20.50;;
52210;SDS011;38179;52.756;6.906;2023-07-31T13:59:22;22.20;;;20.33;;
52210;SDS011;38179;52.756;6.906;2023-07-31T14:01:48;21.67;;;19.98;;
52210;SDS011;38179;52.756;6.906;2023-07-31T14:04:19;21.90;;;19.90;;
52210;SDS011;38179;52.756;6.906;2023-07-31T14:06:45;22.80;;;21.00;;
52210;SDS011;38179;52.756;6.906;2023-07-31T14:09:13;22.83;;;20.88;;
52210;SDS011;38179;52.756;6.906;2023-07-31T14:11:39;21.67;;;19.95;;
52210;SDS011;38179;52.756;6.906;2023-07-31T14:14:05;21.48;;;19.58;;
52210;SDS011;38179;52.756;6.906;2023-07-31T14:16:31;21.85;;;19.77;;
52210;SDS011;38179;52.756;6.906;2023-07-31T14:18:57;21.20;;;19.55;;
52210;SDS011;38179;52.756;6.906;2023-07-31T14:21:24;20.85;;;19.10;;
52210;SDS011;38179;52.756;6.906;2023-07-31T14:23:51;20.38;;;18.58;;
52210;SDS011;38179;52.756;6.906;2023-07-31T14:26:17;19.42;;;17.92;;
52210;SDS011;38179;52.756;6.906;2023-07-31T14:28:43;20.50;;;18.70;;
52210;SDS011;38179;52.756;6.906;2023-07-31T14:31:09;19.45;;;17.95;;
52210;SDS011;38179;52.756;6.906;2023-07-31T14:33:34;19.73;;;18.10;;
52210;SDS011;38179;52.756;6.906;2023-07-31T14:36:00;19.98;;;18.48;;
52210;SDS011;38179;52.756;6.906;2023-07-31T14:38:26;20.17;;;18.70;;
52210;SDS011;38179;52.756;6.906;2023-07-31T14:40:52;20.40;;;18.70;;
52210;SDS011;38179;52.756;6.906;2023-07-31T14:43:18;20.13;;;18.52;;
52210;SDS011;38179;52.756;6.906;2023-07-31T14:45:44;20.42;;;18.77;;
52210;SDS011;38179;52.756;6.906;2023-07-31T14:48:11;20.40;;;18.80;;
52210;SDS011;38179;52.756;6.906;2023-07-31T14:50:38;19.85;;;18.33;;